createdAt,value
2023-02-26T00:00:00.112Z,2.45
2023-02-26T00:02:26.739Z,2.05
2023-02-26T00:04:53.274Z,1.85
2023-02-26T00:07:19.692Z,2.05
2023-02-26T00:09:46.139Z,2.00
2023-02-26T00:12:13.051Z,2.03
2023-02-26T00:14:40.106Z,2.00
2023-02-26T00:17:27.952Z,1.65
2023-02-26T00:19:54.786Z,1.50
2023-02-26T00:22:21.518Z,1.60
2023-02-26T00:24:48.002Z,1.33
2023-02-26T00:27:14.551Z,1.30
2023-02-26T00:29:41.608Z,0.63
2023-02-26T00:32:08.775Z,0.55
2023-02-26T00:34:36.213Z,0.98
2023-02-26T00:37:26.187Z,1.08
2023-02-26T00:40:16.968Z,1.15
2023-02-26T00:42:43.641Z,1.00
2023-02-26T00:45:12.523Z,0.90
2023-02-26T00:48:16.630Z,0.40
2023-02-26T00:50:52.770Z,0.77
2023-02-26T00:53:35.917Z,1.10
2023-02-26T00:56:02.381Z,1.17
2023-02-26T00:58:28.842Z,0.68
2023-02-26T01:00:55.313Z,1.55
2023-02-26T01:03:22.154Z,1.95
2023-02-26T01:05:48.721Z,1.30
2023-02-26T01:08:36.414Z,0.82
2023-02-26T01:11:03.171Z,1.00
2023-02-26T01:13:29.950Z,1.08
2023-02-26T01:16:07.910Z,1.20
2023-02-26T01:18:50.283Z,1.00
2023-02-26T01:21:28.307Z,0.98
2023-02-26T01:23:54.924Z,1.05
2023-02-26T01:26:26.451Z,0.82
2023-02-26T01:28:53.611Z,1.45
2023-02-26T01:31:38.291Z,0.85
2023-02-26T01:34:26.421Z,1.00
2023-02-26T01:37:23.472Z,1.52
2023-02-26T01:40:17.734Z,1.40
2023-02-26T01:42:48.530Z,1.00
2023-02-26T01:45:26.730Z,1.20
2023-02-26T01:48:24.756Z,0.82
2023-02-26T01:50:51.226Z,1.20
2023-02-26T01:53:26.562Z,1.52
2023-02-26T01:55:58.837Z,1.30
2023-02-26T01:58:28.547Z,1.20
2023-02-26T02:00:55.236Z,1.48
2023-02-26T02:03:25.568Z,0.98
2023-02-26T02:05:55.690Z,0.90
2023-02-26T02:08:22.847Z,1.38
2023-02-26T02:10:51.618Z,1.20
2023-02-26T02:13:50.111Z,0.80
2023-02-26T02:16:31.724Z,1.10
2023-02-26T02:19:06.450Z,1.00
2023-02-26T02:21:44.192Z,1.00
2023-02-26T02:24:15.663Z,1.10
2023-02-26T02:29:50.339Z,1.30
2023-02-26T02:32:23.348Z,0.85
2023-02-26T02:35:16.916Z,1.70
2023-02-26T02:37:48.626Z,1.13
2023-02-26T02:40:27.595Z,0.52
2023-02-26T02:43:16.740Z,0.85
2023-02-26T02:45:58.271Z,1.30
2023-02-26T02:48:31.607Z,0.60
2023-02-26T02:51:17.708Z,1.00
2023-02-26T02:53:49.836Z,1.02
2023-02-26T02:56:29.248Z,1.05
2023-02-26T02:59:13.653Z,1.35
2023-02-26T03:01:41.853Z,1.08
2023-02-26T03:04:11.854Z,0.50
2023-02-26T03:06:38.657Z,1.02
2023-02-26T03:09:06.916Z,1.20
2023-02-26T03:11:33.545Z,1.02
2023-02-26T03:14:00.369Z,0.88
2023-02-26T03:16:47.951Z,0.60
2023-02-26T03:19:30.109Z,0.90
2023-02-26T03:22:04.952Z,1.45
2023-02-26T03:24:46.854Z,1.45
2023-02-26T03:27:34.221Z,1.00
2023-02-26T03:30:19.896Z,0.93
2023-02-26T03:32:53.772Z,1.02
2023-02-26T03:35:30.135Z,0.68
2023-02-26T03:38:01.374Z,0.80
2023-02-26T03:40:34.009Z,0.60
2023-02-26T03:43:06.353Z,1.10
2023-02-26T03:45:39.608Z,0.93
2023-02-26T03:48:09.306Z,0.93
2023-02-26T03:50:43.703Z,0.90
2023-02-26T03:53:15.519Z,0.93
2023-02-26T03:55:48.728Z,1.33
2023-02-26T03:58:15.349Z,0.80
2023-02-26T04:00:44.629Z,0.75
2023-02-26T04:03:21.857Z,0.82
2023-02-26T04:05:51.784Z,1.25
2023-02-26T04:08:18.437Z,0.85
2023-02-26T04:10:53.485Z,0.70
2023-02-26T04:13:20.268Z,1.08
2023-02-26T04:15:46.743Z,1.35
2023-02-26T04:18:13.247Z,0.85
2023-02-26T04:20:39.675Z,1.05
2023-02-26T04:23:06.335Z,1.00
2023-02-26T04:25:32.961Z,1.50
2023-02-26T04:27:59.388Z,0.75
2023-02-26T04:30:25.843Z,0.90
2023-02-26T04:32:52.314Z,1.15
2023-02-26T04:35:19.189Z,0.95
2023-02-26T04:37:45.637Z,1.00
2023-02-26T04:40:12.618Z,0.90
2023-02-26T04:42:40.071Z,0.98
2023-02-26T04:45:07.272Z,1.02
2023-02-26T04:47:33.679Z,0.90
2023-02-26T04:50:00.294Z,0.60
2023-02-26T04:52:26.746Z,0.60
2023-02-26T04:54:53.214Z,0.60
2023-02-26T04:57:19.671Z,0.95
2023-02-26T04:59:46.060Z,0.90
2023-02-26T05:02:12.443Z,0.70
2023-02-26T05:04:39.049Z,1.40
2023-02-26T05:07:05.799Z,1.00
2023-02-26T05:09:38.698Z,1.05
2023-02-26T05:12:05.306Z,0.98
2023-02-26T05:14:31.927Z,1.05
2023-02-26T05:16:58.339Z,1.15
2023-02-26T05:19:24.842Z,0.90
2023-02-26T05:21:51.315Z,0.60
2023-02-26T05:24:18.525Z,0.68
2023-02-26T05:26:44.954Z,0.60
2023-02-26T05:29:11.420Z,1.20
2023-02-26T05:31:37.942Z,0.90
2023-02-26T05:34:04.706Z,0.75
2023-02-26T05:36:31.142Z,0.90
2023-02-26T05:38:57.675Z,0.90
2023-02-26T05:41:24.882Z,1.00
2023-02-26T05:43:51.455Z,0.90
2023-02-26T05:46:17.937Z,1.10
2023-02-26T05:48:45.879Z,1.08
2023-02-26T05:51:12.435Z,1.00
2023-02-26T05:53:38.915Z,0.90
2023-02-26T05:56:06.034Z,0.80
2023-02-26T05:58:33.955Z,0.95
2023-02-26T06:01:00.781Z,0.82
2023-02-26T06:03:27.509Z,0.70
2023-02-26T06:05:53.922Z,0.90
2023-02-26T06:08:20.382Z,0.60
2023-02-26T06:10:46.909Z,1.13
2023-02-26T06:13:13.501Z,0.68
2023-02-26T06:15:39.951Z,0.68
2023-02-26T06:18:06.417Z,0.88
2023-02-26T06:20:32.800Z,0.40
2023-02-26T06:22:59.427Z,0.43
2023-02-26T06:25:25.979Z,0.60
2023-02-26T06:27:52.469Z,1.13
2023-02-26T06:30:19.227Z,1.05
2023-02-26T06:32:45.792Z,1.65
2023-02-26T06:35:12.251Z,1.95
2023-02-26T06:37:38.677Z,2.22
2023-02-26T06:40:05.813Z,1.25
2023-02-26T06:42:32.548Z,1.17
2023-02-26T06:44:58.949Z,2.67
2023-02-26T06:47:25.446Z,1.85
2023-02-26T06:49:51.924Z,1.88
2023-02-26T06:52:18.399Z,1.98
2023-02-26T06:54:45.688Z,0.85
2023-02-26T06:57:12.115Z,1.70
2023-02-26T06:59:38.768Z,1.45
2023-02-26T07:02:07.274Z,0.95
2023-02-26T07:04:33.883Z,0.75
2023-02-26T07:07:00.311Z,1.10
2023-02-26T07:09:26.714Z,1.17
2023-02-26T07:11:53.154Z,1.10
2023-02-26T07:14:19.792Z,1.13
2023-02-26T07:16:46.300Z,1.13
2023-02-26T07:19:12.826Z,1.77
2023-02-26T07:21:39.243Z,1.63
2023-02-26T07:24:06.260Z,1.50
2023-02-26T07:26:32.773Z,2.28
2023-02-26T07:28:59.250Z,2.83
2023-02-26T07:31:25.742Z,2.25
2023-02-26T07:33:52.325Z,2.20
2023-02-26T07:36:18.808Z,1.90
2023-02-26T07:38:45.212Z,1.88
2023-02-26T07:41:12.441Z,1.48
2023-02-26T07:43:39.083Z,1.40
2023-02-26T07:46:05.753Z,0.90
2023-02-26T07:48:32.284Z,1.58
2023-02-26T07:50:58.794Z,0.45
2023-02-26T07:53:25.342Z,1.00
2023-02-26T07:55:52.075Z,0.82
2023-02-26T07:58:18.971Z,0.85
2023-02-26T08:00:45.688Z,0.85
2023-02-26T08:03:12.384Z,0.75
2023-02-26T08:05:38.960Z,0.95
2023-02-26T08:08:05.425Z,0.80
2023-02-26T08:10:31.929Z,1.08
2023-02-26T08:12:58.480Z,0.40
2023-02-26T08:15:25.057Z,0.60
2023-02-26T08:17:54.370Z,1.00
2023-02-26T08:20:21.027Z,0.95
2023-02-26T08:22:47.742Z,0.45
2023-02-26T08:25:14.240Z,0.88
2023-02-26T08:27:40.675Z,0.80
2023-02-26T08:30:08.101Z,0.75
2023-02-26T08:32:39.939Z,0.95
2023-02-26T08:35:06.750Z,1.38
2023-02-26T08:37:33.245Z,0.98
2023-02-26T08:39:59.693Z,0.75
2023-02-26T08:42:26.572Z,1.00
2023-02-26T08:44:52.998Z,0.77
2023-02-26T08:47:28.521Z,0.90
2023-02-26T08:49:56.114Z,0.93
2023-02-26T08:52:23.217Z,0.88
2023-02-26T08:54:49.617Z,0.75
2023-02-26T08:57:16.100Z,0.68
2023-02-26T08:59:43.413Z,0.80
2023-02-26T09:02:11.667Z,0.60
2023-02-26T09:04:38.409Z,0.82
2023-02-26T09:07:04.907Z,0.80
2023-02-26T09:09:31.452Z,0.95
2023-02-26T09:11:59.008Z,0.77
2023-02-26T09:14:25.775Z,0.60
2023-02-26T09:16:52.207Z,0.70
2023-02-26T09:19:18.790Z,0.70
2023-02-26T09:21:45.256Z,0.40
2023-02-26T09:24:11.890Z,0.95
2023-02-26T09:26:38.390Z,1.10
2023-02-26T09:29:04.886Z,0.82
2023-02-26T09:31:31.874Z,0.75
2023-02-26T09:33:58.492Z,0.70
2023-02-26T09:36:25.268Z,0.70
2023-02-26T09:38:51.902Z,0.80
2023-02-26T09:41:23.956Z,0.75
2023-02-26T09:44:20.928Z,0.52
2023-02-26T09:46:53.505Z,0.98
2023-02-26T09:49:28.889Z,0.80
2023-02-26T09:52:12.744Z,0.70
2023-02-26T09:57:20.378Z,0.50
2023-02-26T09:59:46.816Z,0.30
2023-02-26T10:02:24.376Z,0.80
2023-02-26T10:07:51.796Z,0.65
2023-02-26T10:10:45.367Z,0.73
2023-02-26T10:13:56.602Z,0.30
2023-02-26T10:16:28.862Z,0.60
2023-02-26T10:19:02.757Z,0.45
2023-02-26T10:21:42.469Z,0.68
2023-02-26T10:24:29.384Z,0.47
2023-02-26T10:27:05.429Z,0.50
2023-02-26T10:29:45.163Z,0.90
2023-02-26T10:32:38.477Z,0.73
2023-02-26T10:35:27.593Z,0.77
2023-02-26T10:37:59.110Z,0.52
2023-02-26T10:40:35.209Z,0.60
2023-02-26T10:43:14.852Z,0.95
2023-02-26T10:46:08.682Z,0.60
2023-02-26T10:49:00.668Z,0.47
2023-02-26T10:51:35.092Z,0.30
2023-02-26T10:54:12.162Z,0.75
2023-02-26T10:56:38.640Z,0.65
2023-02-26T10:59:06.369Z,0.90
2023-02-26T11:01:33.190Z,0.50
2023-02-26T11:04:09.724Z,0.45
2023-02-26T11:06:44.154Z,0.75
2023-02-26T11:09:35.940Z,0.80
2023-02-26T11:12:13.646Z,0.30
2023-02-26T11:14:42.265Z,0.40
2023-02-26T11:17:19.464Z,0.65
2023-02-26T11:20:02.426Z,0.50
2023-02-26T11:22:33.703Z,0.85
2023-02-26T11:25:00.655Z,0.50
2023-02-26T11:27:32.024Z,0.68
2023-02-26T11:30:03.319Z,0.85
2023-02-26T11:32:33.708Z,1.80
2023-02-26T11:35:00.464Z,0.43
2023-02-26T11:37:34.105Z,1.05
2023-02-26T11:40:11.300Z,0.65
2023-02-26T11:42:43.909Z,0.75
2023-02-26T11:45:16.616Z,0.60
2023-02-26T11:47:43.931Z,0.70
2023-02-26T11:50:23.168Z,0.65
2023-02-26T11:53:03.879Z,0.73
2023-02-26T11:55:47.867Z,0.70
2023-02-26T11:58:23.121Z,0.60
2023-02-26T12:00:52.843Z,0.93
2023-02-26T12:03:26.563Z,0.43
2023-02-26T12:05:56.035Z,0.60
2023-02-26T12:08:30.612Z,0.80
2023-02-26T12:11:15.294Z,1.25
2023-02-26T12:13:42.654Z,1.30
2023-02-26T12:16:30.842Z,0.63
2023-02-26T12:19:07.436Z,0.50
2023-02-26T12:22:02.389Z,0.60
2023-02-26T12:24:53.172Z,0.82
2023-02-26T12:27:27.092Z,0.50
2023-02-26T12:30:35.017Z,0.95
2023-02-26T12:33:35.622Z,1.10
2023-02-26T12:36:23.266Z,0.88
2023-02-26T12:39:39.799Z,0.90
2023-02-26T12:42:39.539Z,0.75
2023-02-26T12:45:27.893Z,0.70
2023-02-26T12:48:16.405Z,0.52
2023-02-26T12:51:07.206Z,0.85
2023-02-26T12:53:52.437Z,0.95
2023-02-26T12:56:33.331Z,0.55
2023-02-26T12:59:23.934Z,0.90
2023-02-26T13:02:15.681Z,0.80
2023-02-26T13:05:19.267Z,0.82
2023-02-26T13:08:12.202Z,1.38
2023-02-26T13:10:56.611Z,0.43
2023-02-26T13:13:41.371Z,0.55
2023-02-26T13:16:15.109Z,0.82
2023-02-26T13:19:03.621Z,0.40
2023-02-26T13:21:44.988Z,0.88
2023-02-26T13:24:17.708Z,0.52
2023-02-26T13:26:46.347Z,0.77
2023-02-26T13:29:29.156Z,1.00
2023-02-26T13:32:00.761Z,0.68
2023-02-26T13:34:46.301Z,0.60
2023-02-26T13:37:40.917Z,0.68
2023-02-26T13:40:46.039Z,0.70
2023-02-26T13:43:29.627Z,0.57
2023-02-26T13:48:42.792Z,0.50
2023-02-26T13:51:15.423Z,0.30
2023-02-26T13:53:41.944Z,0.60
2023-02-26T13:56:33.144Z,0.57
2023-02-26T13:59:15.141Z,0.55
2023-02-26T14:01:46.730Z,0.47
2023-02-26T14:04:22.428Z,1.10
2023-02-26T14:07:13.033Z,0.65
2023-02-26T14:10:02.120Z,0.65
2023-02-26T14:12:42.310Z,0.50
2023-02-26T14:15:27.575Z,0.70
2023-02-26T14:18:19.254Z,0.60
2023-02-26T14:20:46.515Z,0.45
2023-02-26T14:23:29.566Z,1.00
2023-02-26T14:26:04.712Z,0.55
2023-02-26T14:28:41.846Z,0.63
2023-02-26T14:33:43.321Z,0.70
2023-02-26T14:36:33.835Z,0.68
2023-02-26T14:39:05.289Z,0.55
2023-02-26T14:41:36.620Z,0.52
2023-02-26T14:44:11.658Z,0.70
2023-02-26T14:46:38.846Z,0.52
2023-02-26T14:49:12.797Z,0.50
2023-02-26T14:52:08.246Z,0.40
2023-02-26T14:54:57.747Z,0.82
2023-02-26T14:58:01.895Z,0.80
2023-02-26T15:00:50.679Z,0.80
2023-02-26T15:03:35.386Z,0.70
2023-02-26T15:06:13.899Z,0.70
2023-02-26T15:09:00.589Z,0.50
2023-02-26T15:11:52.411Z,0.68
2023-02-26T15:14:26.370Z,0.60
2023-02-26T15:17:11.582Z,0.50
2023-02-26T15:20:16.775Z,0.73
2023-02-26T15:23:03.565Z,0.45
2023-02-26T15:25:34.216Z,0.50
2023-02-26T15:28:02.202Z,0.80
2023-02-26T15:30:30.753Z,0.60
2023-02-26T15:33:07.488Z,0.50
2023-02-26T15:35:34.917Z,0.50
2023-02-26T15:38:02.762Z,0.40
2023-02-26T15:40:33.868Z,0.50
2023-02-26T15:45:36.014Z,0.60
2023-02-26T15:48:06.365Z,0.60
2023-02-26T15:50:36.717Z,0.73
2023-02-26T15:53:06.560Z,1.00
2023-02-26T15:55:38.007Z,0.93
2023-02-26T15:58:07.412Z,0.63
2023-02-26T16:00:37.201Z,0.70
2023-02-26T16:03:04.662Z,0.80
2023-02-26T16:05:32.238Z,1.00
2023-02-26T16:07:58.787Z,0.65
2023-02-26T16:10:38.627Z,0.70
2023-02-26T16:13:08.561Z,0.60
2023-02-26T16:15:38.728Z,0.90
2023-02-26T16:18:13.885Z,0.88
2023-02-26T16:20:44.495Z,0.85
2023-02-26T16:23:24.189Z,0.70
2023-02-26T16:25:55.534Z,0.82
2023-02-26T16:28:26.645Z,0.70
2023-02-26T16:30:55.283Z,0.70
2023-02-26T16:33:24.324Z,0.80
2023-02-26T16:36:05.466Z,0.75
2023-02-26T16:38:43.039Z,0.80
2023-02-26T16:41:11.427Z,0.70
2023-02-26T16:43:49.920Z,0.60
2023-02-26T16:46:34.804Z,0.68
2023-02-26T16:49:22.704Z,0.70
2023-02-26T16:51:50.567Z,0.90
2023-02-26T16:54:37.843Z,1.13
2023-02-26T16:57:10.905Z,1.10
2023-02-26T16:59:38.838Z,0.80
2023-02-26T17:02:13.788Z,0.88
2023-02-26T17:04:41.455Z,0.70
2023-02-26T17:07:27.360Z,0.47
2023-02-26T17:09:58.383Z,1.02
2023-02-26T17:12:44.357Z,0.90
2023-02-26T17:15:21.186Z,1.00
2023-02-26T17:17:48.522Z,0.90
2023-02-26T17:20:15.082Z,1.40
2023-02-26T17:22:44.015Z,1.10
2023-02-26T17:25:16.498Z,0.90
2023-02-26T17:27:43.596Z,0.90
2023-02-26T17:30:16.125Z,1.10
2023-02-26T17:32:48.095Z,1.25
2023-02-26T17:35:17.266Z,1.10
2023-02-26T17:37:46.541Z,1.08
2023-02-26T17:40:22.813Z,0.90
2023-02-26T17:42:50.596Z,1.15
2023-02-26T17:45:17.612Z,0.95
2023-02-26T17:47:47.302Z,0.98
2023-02-26T17:50:36.608Z,0.88
2023-02-26T17:53:05.768Z,1.33
2023-02-26T17:55:33.179Z,1.10
2023-02-26T17:57:59.695Z,1.08
2023-02-26T18:00:27.113Z,1.33
2023-02-26T18:02:53.675Z,1.00
2023-02-26T18:05:22.948Z,1.35
2023-02-26T18:07:49.661Z,1.08
2023-02-26T18:10:19.960Z,1.58
2023-02-26T18:12:46.603Z,1.38
2023-02-26T18:15:13.940Z,1.58
2023-02-26T18:17:40.486Z,1.60
2023-02-26T18:20:09.200Z,1.77
2023-02-26T18:22:35.688Z,1.17
2023-02-26T18:25:02.230Z,1.67
2023-02-26T18:27:29.856Z,1.52
2023-02-26T18:29:59.095Z,1.40
2023-02-26T18:32:27.824Z,1.45
2023-02-26T18:34:54.690Z,1.30
2023-02-26T18:37:24.543Z,1.15
2023-02-26T18:39:51.936Z,0.98
2023-02-26T18:42:24.117Z,1.50
2023-02-26T18:44:51.328Z,1.23
2023-02-26T18:47:18.980Z,1.75
2023-02-26T18:49:46.559Z,1.48
2023-02-26T18:52:13.469Z,1.48
2023-02-26T18:54:40.244Z,1.00
2023-02-26T18:57:08.085Z,1.75
2023-02-26T18:59:35.360Z,0.98
2023-02-26T19:02:03.903Z,1.83
2023-02-26T19:04:30.753Z,2.50
2023-02-26T19:06:58.083Z,1.70
2023-02-26T19:09:24.773Z,1.67
2023-02-26T19:11:51.304Z,1.67
2023-02-26T19:14:18.380Z,1.50
2023-02-26T19:16:44.808Z,1.58
2023-02-26T19:19:12.850Z,2.10
2023-02-26T19:21:40.297Z,1.50
2023-02-26T19:24:10.157Z,1.80
2023-02-26T19:26:37.405Z,1.50
2023-02-26T19:29:16.765Z,1.38
2023-02-26T19:31:45.364Z,1.23
2023-02-26T19:34:12.992Z,1.50
2023-02-26T19:36:42.752Z,1.80
2023-02-26T19:39:11.888Z,1.45
2023-02-26T19:41:38.364Z,1.63
2023-02-26T19:44:05.302Z,1.75
2023-02-26T19:46:31.879Z,1.77
2023-02-26T19:48:58.306Z,1.80
2023-02-26T19:51:25.068Z,1.52
2023-02-26T19:53:51.659Z,1.83
2023-02-26T19:56:18.220Z,1.90
2023-02-26T19:58:44.729Z,1.58
2023-02-26T20:01:11.297Z,2.22
2023-02-26T20:03:37.954Z,2.63
2023-02-26T20:06:04.809Z,2.35
2023-02-26T20:08:32.380Z,3.55
2023-02-26T20:10:59.082Z,4.38
2023-02-26T20:13:30.152Z,3.67
2023-02-26T20:16:01.003Z,3.60
2023-02-26T20:18:29.685Z,2.05
2023-02-26T20:20:57.225Z,2.47
2023-02-26T20:23:24.436Z,2.08
2023-02-26T20:25:54.886Z,2.63
2023-02-26T20:28:21.702Z,2.67
2023-02-26T20:30:48.294Z,2.42
2023-02-26T20:33:15.313Z,2.50
2023-02-26T20:35:46.448Z,2.20
2023-02-26T20:38:13.950Z,2.60
2023-02-26T20:40:40.665Z,2.13
2023-02-26T20:43:08.391Z,2.15
2023-02-26T20:45:36.877Z,2.35
2023-02-26T20:48:04.380Z,2.15
2023-02-26T20:50:31.170Z,2.35
2023-02-26T20:52:57.732Z,2.45
2023-02-26T20:55:24.354Z,1.90
2023-02-26T20:57:50.969Z,1.92
2023-02-26T21:00:18.583Z,2.97
2023-02-26T21:02:45.584Z,2.42
2023-02-26T21:05:13.024Z,2.53
2023-02-26T21:07:39.597Z,2.65
2023-02-26T21:10:07.997Z,2.60
2023-02-26T21:12:34.532Z,2.05
2023-02-26T21:15:00.972Z,2.80
2023-02-26T21:17:27.765Z,3.53
2023-02-26T21:19:54.356Z,3.40
2023-02-26T21:22:21.510Z,3.47
2023-02-26T21:24:48.338Z,4.20
2023-02-26T21:27:16.734Z,4.20
2023-02-26T21:29:43.802Z,3.42
2023-02-26T21:32:10.425Z,3.45
2023-02-26T21:34:37.092Z,3.20
2023-02-26T21:37:07.665Z,4.00
2023-02-26T21:39:35.243Z,3.92
2023-02-26T21:42:03.738Z,3.30
2023-02-26T21:44:32.743Z,3.53
2023-02-26T21:47:00.157Z,3.60
2023-02-26T21:49:27.742Z,3.00
2023-02-26T21:51:54.230Z,3.10
2023-02-26T21:54:20.934Z,3.40
2023-02-26T21:56:47.374Z,3.00
2023-02-26T21:59:13.986Z,2.97
2023-02-26T22:01:40.733Z,3.15
2023-02-26T22:04:07.826Z,2.80
2023-02-26T22:06:35.177Z,3.40
2023-02-26T22:09:02.207Z,2.88
2023-02-26T22:11:29.087Z,3.17
2023-02-26T22:13:55.811Z,3.15
2023-02-26T22:16:22.555Z,2.92
2023-02-26T22:18:49.056Z,2.10
2023-02-26T22:21:15.527Z,2.78
2023-02-26T22:23:42.127Z,3.08
2023-02-26T22:26:08.568Z,2.78
2023-02-26T22:28:34.981Z,2.17
2023-02-26T22:31:01.697Z,2.70
2023-02-26T22:33:28.328Z,2.65
2023-02-26T22:35:59.094Z,2.85
2023-02-26T22:38:26.172Z,2.40
2023-02-26T22:40:53.498Z,2.88
2023-02-26T22:43:20.661Z,2.38
2023-02-26T22:45:48.692Z,2.30
2023-02-26T22:48:17.059Z,2.70
2023-02-26T22:50:43.904Z,2.75
2023-02-26T22:53:10.416Z,2.33
2023-02-26T22:55:36.879Z,2.70
2023-02-26T22:58:03.618Z,2.53
2023-02-26T23:00:30.205Z,2.25
2023-02-26T23:02:56.810Z,2.70
2023-02-26T23:05:23.333Z,2.92
2023-02-26T23:07:49.870Z,1.88
2023-02-26T23:10:18.299Z,1.80
2023-02-26T23:12:47.053Z,2.92
2023-02-26T23:15:14.703Z,3.00
2023-02-26T23:17:42.042Z,2.13
2023-02-26T23:20:13.639Z,2.55
2023-02-26T23:22:41.362Z,2.80
2023-02-26T23:25:08.273Z,2.65
2023-02-26T23:27:34.697Z,2.97
2023-02-26T23:30:01.283Z,3.30
2023-02-26T23:32:27.853Z,2.38
2023-02-26T23:34:54.352Z,3.15
2023-02-26T23:37:20.987Z,3.47
2023-02-26T23:39:49.071Z,2.92
2023-02-26T23:42:15.836Z,3.20
2023-02-26T23:44:42.335Z,3.25
2023-02-26T23:47:08.812Z,2.60
2023-02-26T23:49:35.313Z,3.22
2023-02-26T23:52:02.002Z,2.28
2023-02-26T23:54:28.670Z,2.92
2023-02-26T23:56:55.305Z,3.42
2023-02-26T23:59:21.796Z,2.97
